createdAt,value
2017-02-28T00:00:16.029Z,0
2017-02-28T00:01:16.055Z,0
2017-02-28T00:02:16.144Z,0
2017-02-28T00:03:16.183Z,0
2017-02-28T00:04:16.248Z,0
2017-02-28T00:05:16.293Z,0
2017-02-28T00:06:16.355Z,0
2017-02-28T00:07:16.413Z,0
2017-02-28T00:08:16.453Z,0
2017-02-28T00:09:16.503Z,0
2017-02-28T00:10:16.588Z,0
2017-02-28T00:11:16.620Z,0
2017-02-28T00:12:16.684Z,0
2017-02-28T00:13:16.751Z,0
2017-02-28T00:14:16.807Z,0
2017-02-28T00:15:16.857Z,0
2017-02-28T00:16:16.910Z,0
2017-02-28T00:17:16.955Z,0
2017-02-28T00:18:17.046Z,0
2017-02-28T00:19:16.677Z,0
2017-02-28T00:20:17.129Z,0
2017-02-28T00:21:17.174Z,0
2017-02-28T00:22:17.240Z,0
2017-02-28T00:23:17.308Z,0
2017-02-28T00:24:17.365Z,0
2017-02-28T00:25:17.408Z,0
2017-02-28T00:26:17.462Z,0
2017-02-28T00:27:17.495Z,0
2017-02-28T00:28:17.592Z,0
2017-02-28T00:29:17.238Z,0
2017-02-28T00:30:17.683Z,0
2017-02-28T00:31:17.352Z,0
2017-02-28T00:32:17.790Z,0
2017-02-28T00:33:17.825Z,0
2017-02-28T00:34:17.518Z,0
2017-02-28T00:35:17.563Z,0
2017-02-28T00:36:18.035Z,0
2017-02-28T00:37:18.058Z,0
2017-02-28T00:38:18.118Z,0
2017-02-28T00:39:18.174Z,0
2017-02-28T00:40:17.871Z,0
2017-02-28T00:41:17.883Z,0
2017-02-28T00:42:18.331Z,0
2017-02-28T00:43:18.402Z,0
2017-02-28T00:44:18.458Z,0
2017-02-28T00:45:18.510Z,0
2017-02-28T00:46:18.193Z,0
2017-02-28T00:47:18.633Z,0
2017-02-28T00:48:18.668Z,0
2017-02-28T00:49:18.404Z,0
2017-02-28T00:50:18.766Z,0
2017-02-28T00:51:18.478Z,0
2017-02-28T00:52:18.889Z,0
2017-02-28T00:53:18.968Z,0
2017-02-28T00:54:18.989Z,0
2017-02-28T00:55:19.059Z,0
2017-02-28T00:56:19.123Z,0
2017-02-28T00:57:18.774Z,0
2017-02-28T00:58:18.856Z,0
2017-02-28T00:59:18.895Z,0
2017-02-28T01:00:19.347Z,0
2017-02-28T01:01:19.003Z,0
2017-02-28T01:02:19.459Z,0
2017-02-28T01:03:19.126Z,0
2017-02-28T01:04:19.157Z,0
2017-02-28T01:05:19.256Z,0
2017-02-28T01:06:19.273Z,0
2017-02-28T01:07:19.731Z,0
2017-02-28T01:08:19.802Z,0
2017-02-28T01:09:19.453Z,0
2017-02-28T01:10:19.885Z,0
2017-02-28T01:11:19.575Z,0
2017-02-28T01:12:20.031Z,0
2017-02-28T01:13:19.663Z,0
2017-02-28T01:14:20.124Z,0
2017-02-28T01:15:20.164Z,0
2017-02-28T01:16:20.236Z,0
2017-02-28T01:17:20.288Z,0
2017-02-28T01:18:19.954Z,0
2017-02-28T01:19:20.388Z,0
2017-02-28T01:20:20.455Z,0
2017-02-28T01:21:20.487Z,0
2017-02-28T01:22:20.175Z,0
2017-02-28T01:23:20.627Z,0
2017-02-28T01:24:20.661Z,0
2017-02-28T01:25:20.716Z,0
2017-02-28T01:26:20.772Z,0
2017-02-28T01:27:20.846Z,0
2017-02-28T01:28:20.896Z,0
2017-02-28T01:29:20.560Z,0
2017-02-28T01:30:20.609Z,0
2017-02-28T01:31:21.053Z,0
2017-02-28T01:32:21.129Z,0
2017-02-28T01:33:21.156Z,0
2017-02-28T01:34:21.222Z,0
2017-02-28T01:35:21.275Z,0
2017-02-28T01:36:21.325Z,0
2017-02-28T01:37:21.393Z,0
2017-02-28T01:38:21.436Z,0
2017-02-28T01:39:21.510Z,0
2017-02-28T01:40:21.543Z,0
2017-02-28T01:41:21.591Z,0
2017-02-28T01:42:21.683Z,0
2017-02-28T01:43:21.733Z,0
2017-02-28T01:44:21.775Z,0
2017-02-28T01:45:21.441Z,0
2017-02-28T01:46:21.891Z,0
2017-02-28T01:47:21.946Z,0
2017-02-28T01:48:21.987Z,0
2017-02-28T01:49:22.047Z,0
2017-02-28T01:50:22.125Z,0
2017-02-28T01:51:22.159Z,0
2017-02-28T01:52:22.208Z,0
2017-02-28T01:53:22.272Z,0
2017-02-28T01:54:21.567Z,0
2017-02-28T01:55:22.372Z,0
2017-02-28T01:56:22.460Z,0
2017-02-28T01:57:22.479Z,0
2017-02-28T01:58:22.595Z,0
2017-02-28T01:59:22.611Z,0
2017-02-28T02:00:22.679Z,0
2017-02-28T02:01:22.746Z,0
2017-02-28T02:02:22.402Z,0
2017-02-28T02:03:22.848Z,0
2017-02-28T02:04:22.875Z,0
2017-02-28T02:05:22.929Z,0
2017-02-28T02:06:22.992Z,0
2017-02-28T02:07:23.037Z,0
2017-02-28T02:08:23.102Z,0
2017-02-28T02:09:23.165Z,0
2017-02-28T02:10:22.826Z,0
2017-02-28T02:11:23.272Z,0
2017-02-28T02:12:23.329Z,0
2017-02-28T02:13:23.364Z,0
2017-02-28T02:14:23.047Z,0
2017-02-28T02:15:23.494Z,0
2017-02-28T02:16:23.538Z,0
2017-02-28T02:17:23.606Z,0
2017-02-28T02:18:23.687Z,0
2017-02-28T02:19:23.703Z,0
2017-02-28T02:20:23.369Z,0
2017-02-28T02:21:23.826Z,0
2017-02-28T02:22:23.485Z,0
2017-02-28T02:23:23.530Z,0
2017-02-28T02:24:23.985Z,0
2017-02-28T02:25:24.032Z,0
2017-02-28T02:26:24.126Z,0
2017-02-28T02:27:23.775Z,0
2017-02-28T02:28:23.802Z,0
2017-02-28T02:29:23.880Z,0
2017-02-28T02:30:23.912Z,0
2017-02-28T02:31:24.371Z,0
2017-02-28T02:32:24.027Z,0
2017-02-28T02:33:24.499Z,0
2017-02-28T02:34:24.534Z,0
2017-02-28T02:35:24.223Z,0
2017-02-28T02:36:24.645Z,0
2017-02-28T02:37:24.680Z,0
2017-02-28T02:38:24.755Z,0
2017-02-28T02:39:24.419Z,0
2017-02-28T02:40:24.491Z,0
2017-02-28T02:41:24.529Z,0
2017-02-28T02:42:24.971Z,0
2017-02-28T02:43:24.644Z,0
2017-02-28T02:44:25.078Z,0
2017-02-28T02:45:24.746Z,0
2017-02-28T02:46:25.195Z,0
2017-02-28T02:47:25.245Z,0
2017-02-28T02:48:24.919Z,0
2017-02-28T02:49:25.368Z,0
2017-02-28T02:50:25.418Z,0
2017-02-28T02:51:25.092Z,0
2017-02-28T02:52:25.123Z,0
2017-02-28T02:53:25.577Z,0
2017-02-28T02:54:25.633Z,0
2017-02-28T02:55:25.700Z,0
2017-02-28T02:56:25.740Z,0
2017-02-28T02:57:25.822Z,0
2017-02-28T02:58:25.858Z,0
2017-02-28T02:59:25.913Z,0
2017-02-28T03:00:25.983Z,0
2017-02-28T03:01:26.016Z,0
2017-02-28T03:02:26.086Z,0
2017-02-28T03:03:26.139Z,0
2017-02-28T03:04:26.195Z,0
2017-02-28T03:05:25.858Z,0
2017-02-28T03:06:25.951Z,0
2017-02-28T03:07:26.344Z,0
2017-02-28T03:08:26.389Z,0
2017-02-28T03:09:26.457Z,0
2017-02-28T03:10:26.523Z,0
2017-02-28T03:11:26.188Z,0
2017-02-28T03:12:26.627Z,0
2017-02-28T03:13:26.894Z,0
2017-02-28T03:14:26.743Z,0
2017-02-28T03:15:26.790Z,0
2017-02-28T03:16:26.854Z,0
2017-02-28T03:17:26.502Z,0
2017-02-28T03:18:27.147Z,0
2017-02-28T03:19:26.995Z,0
2017-02-28T03:20:27.070Z,0
2017-02-28T03:21:27.124Z,0
2017-02-28T03:22:27.201Z,0
2017-02-28T03:23:26.837Z,0
2017-02-28T03:24:27.285Z,0
2017-02-28T03:25:27.355Z,0
2017-02-28T03:26:27.395Z,0
2017-02-28T03:27:27.461Z,0
2017-02-28T03:28:27.523Z,0
2017-02-28T03:29:27.578Z,0
2017-02-28T03:30:27.620Z,0
2017-02-28T03:31:27.299Z,0
2017-02-28T03:32:27.721Z,0
2017-02-28T03:33:27.413Z,0
2017-02-28T03:34:27.841Z,0
2017-02-28T03:35:27.509Z,0
2017-02-28T03:36:27.945Z,0
2017-02-28T03:37:28.000Z,0
2017-02-28T03:38:27.655Z,0
2017-02-28T03:39:28.115Z,0
2017-02-28T03:40:28.380Z,0
2017-02-28T03:41:27.832Z,0
2017-02-28T03:42:28.296Z,0
2017-02-28T03:43:27.938Z,0
2017-02-28T03:44:28.008Z,0
2017-02-28T03:45:28.447Z,0
2017-02-28T03:46:28.506Z,0
2017-02-28T03:47:28.582Z,0
2017-02-28T03:48:28.628Z,0
2017-02-28T03:49:28.675Z,0
2017-02-28T03:50:28.730Z,0
2017-02-28T03:51:42.149Z,0
2017-02-28T03:52:28.840Z,0
2017-02-28T03:53:28.890Z,0
2017-02-28T03:54:28.942Z,0
2017-02-28T03:55:29.012Z,0
2017-02-28T03:56:29.042Z,0
2017-02-28T03:57:28.714Z,0
2017-02-28T03:58:29.155Z,0
2017-02-28T03:59:29.197Z,0
2017-02-28T04:00:29.254Z,0
2017-02-28T04:01:29.322Z,0
2017-02-28T04:02:29.390Z,0
2017-02-28T04:03:29.435Z,0
2017-02-28T04:04:29.499Z,0
2017-02-28T04:05:29.555Z,0
2017-02-28T04:06:29.606Z,0
2017-02-28T04:07:29.650Z,0
2017-02-28T04:08:29.722Z,0
2017-02-28T04:09:29.764Z,0
2017-02-28T04:10:29.835Z,0
2017-02-28T04:11:29.872Z,0
2017-02-28T04:12:29.917Z,0
2017-02-28T04:13:30.197Z,0
2017-02-28T04:14:30.228Z,0
2017-02-28T04:15:30.102Z,0
2017-02-28T04:16:30.143Z,0
2017-02-28T04:17:30.219Z,0
2017-02-28T04:18:30.510Z,0
2017-02-28T04:19:30.557Z,0
2017-02-28T04:20:30.382Z,0
2017-02-28T04:21:30.430Z,0
2017-02-28T04:22:30.086Z,0
2017-02-28T04:23:30.530Z,0
2017-02-28T04:24:30.587Z,0
2017-02-28T04:25:30.252Z,0
2017-02-28T04:26:30.705Z,0
2017-02-28T04:27:30.763Z,0
2017-02-28T04:28:30.824Z,0
2017-02-28T04:29:30.871Z,0
2017-02-28T04:30:30.945Z,0
2017-02-28T04:31:30.986Z,0
2017-02-28T04:32:31.046Z,0
2017-02-28T04:33:31.092Z,0
2017-02-28T04:34:30.758Z,0
2017-02-28T04:35:31.194Z,0
2017-02-28T04:36:30.874Z,0
2017-02-28T04:37:31.315Z,0
2017-02-28T04:38:31.364Z,0
2017-02-28T04:39:31.427Z,0
2017-02-28T04:40:31.511Z,0
2017-02-28T04:41:31.549Z,0
2017-02-28T04:42:31.220Z,0
2017-02-28T04:43:31.623Z,0
2017-02-28T04:44:31.330Z,0
2017-02-28T04:45:31.758Z,0
2017-02-28T04:46:31.812Z,0
2017-02-28T04:47:31.865Z,0
2017-02-28T04:48:31.927Z,0
2017-02-28T04:49:31.966Z,0
2017-02-28T04:50:32.010Z,0
2017-02-28T04:51:45.723Z,0
2017-02-28T04:52:45.798Z,0
2017-02-28T04:53:32.194Z,0
2017-02-28T04:54:32.255Z,0
2017-02-28T04:55:32.300Z,0
2017-02-28T04:56:32.346Z,0
2017-02-28T04:57:32.404Z,0
2017-02-28T04:58:32.460Z,0
2017-02-28T04:59:32.546Z,0
2017-02-28T05:00:32.587Z,0
2017-02-28T05:01:32.649Z,0
2017-02-28T05:02:32.698Z,0
2017-02-28T05:03:32.766Z,0
2017-02-28T05:04:32.784Z,0
2017-02-28T05:05:32.854Z,0
2017-02-28T05:06:32.923Z,0
2017-02-28T05:07:32.966Z,0
2017-02-28T05:08:33.044Z,0
2017-02-28T05:09:33.072Z,0
2017-02-28T05:10:33.139Z,0
2017-02-28T05:11:33.205Z,0
2017-02-28T05:12:33.250Z,0
2017-02-28T05:13:33.302Z,0
2017-02-28T05:14:33.346Z,0
2017-02-28T05:15:33.417Z,0
2017-02-28T05:16:33.469Z,0
2017-02-28T05:17:33.521Z,0
2017-02-28T05:18:33.204Z,0
2017-02-28T05:19:33.632Z,0
2017-02-28T05:20:33.892Z,0
2017-02-28T05:21:33.736Z,0
2017-02-28T05:22:33.774Z,0
2017-02-28T05:23:33.861Z,0
2017-02-28T05:24:34.095Z,0
2017-02-28T05:25:34.155Z,0
2017-02-28T05:26:34.004Z,0
2017-02-28T05:27:34.052Z,0
2017-02-28T05:28:34.119Z,0
2017-02-28T05:29:34.176Z,0
2017-02-28T05:30:34.250Z,0
2017-02-28T05:31:34.274Z,0
2017-02-28T05:32:34.348Z,0
2017-02-28T05:33:34.385Z,0
2017-02-28T05:34:34.461Z,0
2017-02-28T05:35:34.514Z,0
2017-02-28T05:36:34.555Z,0
2017-02-28T05:37:34.620Z,0
2017-02-28T05:38:34.678Z,0
2017-02-28T05:39:34.735Z,0
2017-02-28T05:40:34.788Z,0
2017-02-28T05:41:34.840Z,0
2017-02-28T05:42:34.891Z,0
2017-02-28T05:43:34.560Z,0
2017-02-28T05:44:35.015Z,4
2017-02-28T05:45:35.056Z,4
2017-02-28T05:46:35.136Z,0
2017-02-28T05:47:35.173Z,4
2017-02-28T05:48:35.227Z,0
2017-02-28T05:49:35.266Z,4
2017-02-28T05:50:35.326Z,4
2017-02-28T05:51:35.421Z,4
2017-02-28T05:52:35.668Z,8
2017-02-28T05:53:35.724Z,8
2017-02-28T05:54:35.566Z,8
2017-02-28T05:55:35.594Z,8
2017-02-28T05:56:35.667Z,8
2017-02-28T05:57:35.731Z,8
2017-02-28T05:58:35.785Z,8
2017-02-28T05:59:35.823Z,12
2017-02-28T06:00:35.886Z,8
2017-02-28T06:01:35.941Z,8
2017-02-28T06:02:36.020Z,12
2017-02-28T06:03:36.067Z,12
2017-02-28T06:04:36.118Z,12
2017-02-28T06:05:36.154Z,8
2017-02-28T06:06:35.830Z,12
2017-02-28T06:07:36.269Z,8
2017-02-28T06:08:36.335Z,12
2017-02-28T06:09:36.381Z,16
2017-02-28T06:10:36.448Z,16
2017-02-28T06:11:36.493Z,20
2017-02-28T06:12:36.567Z,16
2017-02-28T06:13:36.595Z,20
2017-02-28T06:14:36.656Z,20
2017-02-28T06:15:36.724Z,20
2017-02-28T06:16:36.788Z,24
2017-02-28T06:17:36.849Z,32
2017-02-28T06:18:36.865Z,32
2017-02-28T06:19:36.960Z,36
2017-02-28T06:20:37.006Z,36
2017-02-28T06:21:37.060Z,32
2017-02-28T06:22:37.105Z,32
2017-02-28T06:23:37.143Z,40
2017-02-28T06:24:37.221Z,44
2017-02-28T06:25:37.264Z,48
2017-02-28T06:26:37.312Z,48
2017-02-28T06:27:37.367Z,48
2017-02-28T06:28:37.471Z,44
2017-02-28T06:29:37.480Z,48
2017-02-28T06:30:37.162Z,56
2017-02-28T06:31:37.596Z,68
2017-02-28T06:32:37.669Z,76
2017-02-28T06:33:37.323Z,84
2017-02-28T06:34:37.788Z,92
2017-02-28T06:35:37.818Z,100
2017-02-28T06:36:37.886Z,100
2017-02-28T06:37:37.931Z,84
2017-02-28T06:38:37.991Z,92
2017-02-28T06:39:38.026Z,100
2017-02-28T06:40:38.084Z,108
2017-02-28T06:41:38.139Z,116
2017-02-28T06:42:38.202Z,124
2017-02-28T06:43:37.879Z,120
2017-02-28T06:44:38.299Z,120
2017-02-28T06:45:38.354Z,132
2017-02-28T06:46:38.026Z,136
2017-02-28T06:47:38.479Z,148
2017-02-28T06:48:38.522Z,156
2017-02-28T06:49:38.596Z,168
2017-02-28T06:50:38.637Z,188
2017-02-28T06:51:38.710Z,180
2017-02-28T06:52:38.772Z,176
2017-02-28T06:53:38.796Z,184
2017-02-28T06:54:38.842Z,184
2017-02-28T06:55:38.899Z,176
2017-02-28T06:56:38.960Z,180
2017-02-28T06:57:39.022Z,188
2017-02-28T06:58:38.699Z,204
2017-02-28T06:59:39.166Z,208
2017-02-28T07:00:39.203Z,260
2017-02-28T07:01:39.255Z,252
2017-02-28T07:02:39.294Z,224
2017-02-28T07:03:39.360Z,208
2017-02-28T07:04:39.409Z,216
2017-02-28T07:05:39.462Z,232
2017-02-28T07:06:39.514Z,244
2017-02-28T07:07:39.590Z,244
2017-02-28T07:08:39.256Z,252
2017-02-28T07:09:39.690Z,272
2017-02-28T07:10:39.732Z,276
2017-02-28T07:11:39.787Z,292
2017-02-28T07:12:39.832Z,308
2017-02-28T07:13:39.896Z,328
2017-02-28T07:14:39.987Z,356
2017-02-28T07:15:39.617Z,400
2017-02-28T07:16:39.685Z,428
2017-02-28T07:17:39.730Z,424
2017-02-28T07:18:40.159Z,428
2017-02-28T07:19:40.224Z,444
2017-02-28T07:20:40.289Z,440
2017-02-28T07:21:40.336Z,452
2017-02-28T07:22:40.424Z,472
2017-02-28T07:23:40.474Z,452
2017-02-28T07:24:40.505Z,472
2017-02-28T07:25:40.182Z,492
2017-02-28T07:26:40.611Z,516
2017-02-28T07:27:40.664Z,532
2017-02-28T07:28:40.343Z,520
2017-02-28T07:29:40.383Z,512
2017-02-28T07:30:40.812Z,552
2017-02-28T07:31:40.506Z,504
2017-02-28T07:32:40.937Z,480
2017-02-28T07:33:40.983Z,456
2017-02-28T07:34:41.054Z,500
2017-02-28T07:35:41.111Z,484
2017-02-28T07:36:41.156Z,460
2017-02-28T07:37:40.820Z,480
2017-02-28T07:38:41.284Z,460
2017-02-28T07:39:41.349Z,468
2017-02-28T07:40:41.376Z,492
2017-02-28T07:41:41.443Z,540
2017-02-28T07:42:41.491Z,568
2017-02-28T07:43:41.532Z,588
2017-02-28T07:44:41.617Z,580
2017-02-28T07:45:41.650Z,532
2017-02-28T07:46:41.701Z,476
2017-02-28T07:47:41.758Z,500
2017-02-28T07:48:41.437Z,516
2017-02-28T07:49:41.481Z,556
2017-02-28T07:50:41.924Z,588
2017-02-28T07:51:41.604Z,608
2017-02-28T07:52:42.027Z,560
2017-02-28T07:53:42.101Z,612
2017-02-28T07:54:42.160Z,640
2017-02-28T07:55:41.811Z,564
2017-02-28T07:56:41.899Z,560
2017-02-28T07:57:41.914Z,632
2017-02-28T07:58:42.368Z,736
2017-02-28T07:59:42.433Z,704
2017-02-28T08:00:42.470Z,640
2017-02-28T08:01:42.149Z,608
2017-02-28T08:02:42.575Z,608
2017-02-28T08:03:41.881Z,600
2017-02-28T08:04:42.710Z,540
2017-02-28T08:05:42.774Z,560
2017-02-28T08:06:42.407Z,612
2017-02-28T08:07:42.482Z,644
2017-02-28T08:08:42.900Z,660
2017-02-28T08:09:42.970Z,716
2017-02-28T08:10:43.014Z,696
2017-02-28T08:11:43.089Z,660
2017-02-28T08:12:43.150Z,684
2017-02-28T08:13:42.815Z,688
2017-02-28T08:14:42.855Z,696
2017-02-28T08:15:42.909Z,668
2017-02-28T08:16:42.971Z,656
2017-02-28T08:17:43.391Z,688
2017-02-28T08:18:43.455Z,684
2017-02-28T08:19:43.507Z,680
2017-02-28T08:20:43.600Z,712
2017-02-28T08:21:43.652Z,796
2017-02-28T08:22:43.300Z,840
2017-02-28T08:23:43.387Z,824
2017-02-28T08:24:43.812Z,816
2017-02-28T08:25:43.847Z,788
2017-02-28T08:26:43.877Z,776
2017-02-28T08:27:43.563Z,772
2017-02-28T08:28:44.045Z,776
2017-02-28T08:29:44.043Z,772
2017-02-28T08:30:44.124Z,812
2017-02-28T08:31:43.769Z,832
2017-02-28T08:32:43.838Z,840
2017-02-28T08:33:44.299Z,804
2017-02-28T08:34:43.951Z,804
2017-02-28T08:35:44.388Z,832
2017-02-28T08:36:44.099Z,864
2017-02-28T08:37:44.119Z,840
2017-02-28T08:38:44.556Z,876
2017-02-28T08:39:44.623Z,924
2017-02-28T08:40:44.672Z,920
2017-02-28T08:41:44.721Z,872
2017-02-28T08:42:44.765Z,868
2017-02-28T08:43:44.824Z,856
2017-02-28T08:44:44.521Z,828
2017-02-28T08:45:44.942Z,800
2017-02-28T08:46:44.989Z,788
2017-02-28T08:47:45.052Z,824
2017-02-28T08:48:45.101Z,832
2017-02-28T08:49:45.152Z,756
2017-02-28T08:50:45.222Z,756
2017-02-28T08:51:45.270Z,740
2017-02-28T08:52:44.969Z,716
2017-02-28T08:53:45.389Z,740
2017-02-28T08:54:45.456Z,776
2017-02-28T08:55:45.487Z,776
2017-02-28T08:56:45.548Z,748
2017-02-28T08:57:45.602Z,736
2017-02-28T08:58:45.290Z,796
2017-02-28T08:59:45.713Z,820
2017-02-28T09:00:45.779Z,832
2017-02-28T09:01:45.817Z,852
2017-02-28T09:02:45.506Z,872
2017-02-28T09:03:45.932Z,840
2017-02-28T09:04:45.976Z,820
2017-02-28T09:05:46.038Z,772
2017-02-28T09:06:46.081Z,764
2017-02-28T09:07:45.772Z,752
2017-02-28T09:08:45.817Z,732
2017-02-28T09:09:46.257Z,708
2017-02-28T09:10:46.305Z,684
2017-02-28T09:11:46.369Z,684
2017-02-28T09:12:46.044Z,696
2017-02-28T09:13:46.475Z,724
2017-02-28T09:14:46.535Z,700
2017-02-28T09:15:46.212Z,696
2017-02-28T09:16:46.267Z,712
2017-02-28T09:17:46.696Z,760
2017-02-28T09:18:46.750Z,724
2017-02-28T09:19:46.800Z,728
2017-02-28T09:20:46.867Z,736
2017-02-28T09:21:46.923Z,752
2017-02-28T09:22:46.604Z,724
2017-02-28T09:23:47.037Z,740
2017-02-28T09:24:46.315Z,748
2017-02-28T09:25:47.150Z,712
2017-02-28T09:26:47.197Z,748
2017-02-28T09:27:47.258Z,776
2017-02-28T09:28:47.327Z,784
2017-02-28T09:29:47.357Z,748
2017-02-28T09:30:47.441Z,728
2017-02-28T09:31:47.118Z,720
2017-02-28T09:32:47.529Z,760
2017-02-28T09:33:47.200Z,760
2017-02-28T09:34:47.655Z,808
2017-02-28T09:35:47.688Z,840
2017-02-28T09:36:47.385Z,760
2017-02-28T09:37:47.813Z,740
2017-02-28T09:38:47.870Z,768
2017-02-28T09:39:47.937Z,844
2017-02-28T09:40:47.962Z,812
2017-02-28T09:41:48.039Z,820
2017-02-28T09:42:48.086Z,772
2017-02-28T09:43:48.169Z,704
2017-02-28T09:44:48.201Z,684
2017-02-28T09:45:47.869Z,708
2017-02-28T09:46:48.306Z,760
2017-02-28T09:47:48.382Z,808
2017-02-28T09:48:48.442Z,808
2017-02-28T09:49:48.479Z,820
2017-02-28T09:50:48.526Z,852
2017-02-28T09:51:48.581Z,836
2017-02-28T09:52:48.265Z,864
2017-02-28T09:53:48.714Z,916
2017-02-28T09:54:48.769Z,888
2017-02-28T09:55:48.425Z,888
2017-02-28T09:56:48.876Z,888
2017-02-28T09:57:48.928Z,896
2017-02-28T09:58:48.988Z,872
2017-02-28T09:59:49.033Z,892
2017-02-28T10:00:49.112Z,936
2017-02-28T10:01:48.759Z,912
2017-02-28T10:02:49.216Z,956
2017-02-28T10:03:49.245Z,944
2017-02-28T10:04:49.300Z,872
2017-02-28T10:05:48.594Z,872
2017-02-28T10:06:49.036Z,936
2017-02-28T10:07:49.467Z,976
2017-02-28T10:08:49.528Z,960
2017-02-28T10:09:49.592Z,940
2017-02-28T10:10:49.639Z,944
2017-02-28T10:11:49.291Z,1016
2017-02-28T10:12:49.751Z,1160
2017-02-28T10:13:49.817Z,1116
2017-02-28T10:14:49.865Z,1144
2017-02-28T10:15:49.930Z,1120
2017-02-28T10:16:49.594Z,1080
2017-02-28T10:17:50.027Z,1116
2017-02-28T10:18:49.690Z,1196
2017-02-28T10:19:49.735Z,1156
2017-02-28T10:20:49.812Z,1068
2017-02-28T10:21:50.246Z,1124
2017-02-28T10:22:49.928Z,1180
2017-02-28T10:23:50.353Z,1140
2017-02-28T10:24:50.035Z,1096
2017-02-28T10:25:50.477Z,1064
2017-02-28T10:26:50.522Z,1080
2017-02-28T10:27:50.577Z,1028
2017-02-28T10:28:50.622Z,1088
2017-02-28T10:29:50.680Z,1092
2017-02-28T10:30:50.753Z,1104
2017-02-28T10:31:50.783Z,1092
2017-02-28T10:32:50.846Z,1000
2017-02-28T10:33:50.910Z,988
2017-02-28T10:34:50.197Z,1044
2017-02-28T10:35:51.023Z,1188
2017-02-28T10:36:50.683Z,1272
2017-02-28T10:37:51.127Z,1164
2017-02-28T10:38:51.169Z,1136
2017-02-28T10:39:50.882Z,1136
2017-02-28T10:40:50.910Z,1132
2017-02-28T10:41:51.360Z,1152
2017-02-28T10:42:51.430Z,1188
2017-02-28T10:43:51.075Z,1176
2017-02-28T10:44:51.527Z,1212
2017-02-28T10:45:51.588Z,1128
2017-02-28T10:46:51.627Z,1132
2017-02-28T10:47:51.692Z,1212
2017-02-28T10:48:51.736Z,1240
2017-02-28T10:49:51.785Z,1144
2017-02-28T10:50:51.869Z,1148
2017-02-28T10:51:51.906Z,1160
2017-02-28T10:52:51.974Z,1100
2017-02-28T10:53:52.039Z,1208
2017-02-28T10:54:52.081Z,1368
2017-02-28T10:55:52.161Z,1280
2017-02-28T10:56:51.422Z,1272
2017-02-28T10:57:52.228Z,1244
2017-02-28T10:58:52.319Z,1268
2017-02-28T10:59:52.349Z,1328
2017-02-28T11:00:52.057Z,1284
2017-02-28T11:01:52.463Z,1204
2017-02-28T11:02:52.523Z,1196
2017-02-28T11:03:52.587Z,1212
2017-02-28T11:04:52.636Z,1204
2017-02-28T11:05:52.699Z,1240
2017-02-28T11:06:52.738Z,1252
2017-02-28T11:07:52.791Z,1328
2017-02-28T11:08:52.870Z,1332
2017-02-28T11:09:52.888Z,1308
2017-02-28T11:10:52.949Z,1352
2017-02-28T11:11:53.027Z,1232
2017-02-28T11:12:53.088Z,1088
2017-02-28T11:13:53.163Z,1156
2017-02-28T11:14:53.191Z,1140
2017-02-28T11:15:53.235Z,1160
2017-02-28T11:16:53.306Z,1168
2017-02-28T11:17:53.366Z,1240
2017-02-28T11:18:53.574Z,1324
2017-02-28T11:19:53.476Z,1276
2017-02-28T11:20:53.514Z,1360
2017-02-28T11:21:53.197Z,1360
2017-02-28T11:22:53.631Z,1284
2017-02-28T11:23:53.690Z,1312
2017-02-28T11:24:53.718Z,1384
2017-02-28T11:25:53.433Z,1468
2017-02-28T11:26:53.848Z,1336
2017-02-28T11:27:53.925Z,1328
2017-02-28T11:28:53.962Z,1296
2017-02-28T11:29:54.035Z,1268
2017-02-28T11:30:54.064Z,1196
2017-02-28T11:31:54.126Z,1132
2017-02-28T11:32:54.191Z,1136
2017-02-28T11:33:53.845Z,1084
2017-02-28T11:34:53.906Z,1056
2017-02-28T11:35:54.344Z,1232
2017-02-28T11:36:54.399Z,1224
2017-02-28T11:37:54.449Z,1060
2017-02-28T11:38:54.108Z,1072
2017-02-28T11:39:54.565Z,1144
2017-02-28T11:40:54.614Z,1060
2017-02-28T11:41:54.314Z,1000
2017-02-28T11:42:54.724Z,1040
2017-02-28T11:43:54.788Z,1016
2017-02-28T11:44:54.827Z,928
2017-02-28T11:45:54.895Z,964
2017-02-28T11:46:54.946Z,1000
2017-02-28T11:47:55.023Z,1016
2017-02-28T11:48:55.077Z,1064
2017-02-28T11:49:55.135Z,1072
2017-02-28T11:50:55.185Z,1052
2017-02-28T11:51:55.225Z,1036
2017-02-28T11:52:54.906Z,1004
2017-02-28T11:53:55.377Z,956
2017-02-28T11:54:55.408Z,992
2017-02-28T11:55:55.459Z,964
2017-02-28T11:56:55.511Z,980
2017-02-28T11:57:55.571Z,932
2017-02-28T11:58:55.645Z,988
2017-02-28T11:59:55.684Z,1016
2017-02-28T12:00:55.730Z,976
2017-02-28T12:01:55.781Z,976
2017-02-28T12:02:55.854Z,976
2017-02-28T12:03:55.895Z,948
2017-02-28T12:04:55.960Z,1016
2017-02-28T12:05:56.017Z,1000
2017-02-28T12:06:56.054Z,956
2017-02-28T12:07:55.748Z,896
2017-02-28T12:08:56.173Z,976
2017-02-28T12:09:55.865Z,1008
2017-02-28T12:10:56.298Z,1064
2017-02-28T12:11:56.329Z,1072
2017-02-28T12:12:56.401Z,1024
2017-02-28T12:13:56.442Z,1048
2017-02-28T12:14:56.516Z,1036
2017-02-28T12:15:56.543Z,968
2017-02-28T12:16:56.635Z,960
2017-02-28T12:17:56.660Z,980
2017-02-28T12:18:56.730Z,920
2017-02-28T12:19:56.799Z,912
2017-02-28T12:20:56.857Z,920
2017-02-28T12:21:56.917Z,912
2017-02-28T12:22:56.566Z,944
2017-02-28T12:23:56.996Z,928
2017-02-28T12:24:57.071Z,876
2017-02-28T12:25:57.147Z,872
2017-02-28T12:26:57.194Z,912
2017-02-28T12:27:57.218Z,936
2017-02-28T12:28:57.283Z,948
2017-02-28T12:29:57.340Z,944
2017-02-28T12:30:57.396Z,988
2017-02-28T12:31:57.428Z,1116
2017-02-28T12:32:57.108Z,1076
2017-02-28T12:33:57.563Z,1020
2017-02-28T12:34:56.828Z,1040
2017-02-28T12:35:57.694Z,1048
2017-02-28T12:36:57.722Z,1076
2017-02-28T12:37:57.773Z,1060
2017-02-28T12:38:57.847Z,1040
2017-02-28T12:39:57.871Z,948
2017-02-28T12:40:57.950Z,816
2017-02-28T12:41:57.997Z,840
2017-02-28T12:42:58.040Z,880
2017-02-28T12:43:58.115Z,776
2017-02-28T12:44:58.157Z,760
2017-02-28T12:45:58.218Z,852
2017-02-28T12:46:58.270Z,828
2017-02-28T12:47:58.307Z,784
2017-02-28T12:48:58.010Z,816
2017-02-28T12:49:58.033Z,824
2017-02-28T12:50:58.493Z,828
2017-02-28T12:51:58.536Z,900
2017-02-28T12:52:58.600Z,892
2017-02-28T12:53:58.666Z,840
2017-02-28T12:54:58.724Z,856
2017-02-28T12:55:58.751Z,852
2017-02-28T12:56:58.810Z,808
2017-02-28T12:57:58.858Z,788
2017-02-28T12:58:58.929Z,808
2017-02-28T12:59:59.007Z,816
2017-02-28T13:00:59.039Z,756
2017-02-28T13:01:59.090Z,788
2017-02-28T13:02:59.153Z,784
2017-02-28T13:03:59.199Z,776
2017-02-28T13:04:59.252Z,760
2017-02-28T13:05:59.305Z,728
2017-02-28T13:06:59.376Z,780
2017-02-28T13:07:59.425Z,768
2017-02-28T13:08:59.478Z,748
2017-02-28T13:09:59.526Z,760
2017-02-28T13:10:59.569Z,764
2017-02-28T13:11:59.637Z,732
2017-02-28T13:12:59.694Z,712
2017-02-28T13:13:59.740Z,696
2017-02-28T13:14:59.426Z,684
2017-02-28T13:15:59.464Z,692
2017-02-28T13:16:59.929Z,684
2017-02-28T13:17:59.951Z,648
2017-02-28T13:19:00.037Z,656
2017-02-28T13:20:00.077Z,656
2017-02-28T13:21:00.177Z,644
2017-02-28T13:22:00.198Z,672
2017-02-28T13:23:00.242Z,672
2017-02-28T13:24:00.304Z,660
2017-02-28T13:25:00.364Z,660
2017-02-28T13:26:00.399Z,664
2017-02-28T13:27:00.442Z,704
2017-02-28T13:28:00.518Z,716
2017-02-28T13:29:00.579Z,724
2017-02-28T13:30:00.631Z,736
2017-02-28T13:31:00.677Z,724
2017-02-28T13:32:00.759Z,712
2017-02-28T13:33:00.819Z,704
2017-02-28T13:34:00.848Z,716
2017-02-28T13:35:00.923Z,700
2017-02-28T13:36:00.593Z,716
2017-02-28T13:37:01.044Z,744
2017-02-28T13:38:01.072Z,764
2017-02-28T13:39:01.119Z,760
2017-02-28T13:40:01.183Z,748
2017-02-28T13:41:01.219Z,780
2017-02-28T13:42:01.298Z,780
2017-02-28T13:43:01.345Z,756
2017-02-28T13:44:01.427Z,724
2017-02-28T13:45:01.478Z,712
2017-02-28T13:46:01.533Z,684
2017-02-28T13:47:01.567Z,660
2017-02-28T13:48:01.631Z,644
2017-02-28T13:49:01.681Z,672
2017-02-28T13:50:01.738Z,680
2017-02-28T13:51:01.789Z,716
2017-02-28T13:52:01.828Z,716
2017-02-28T13:53:01.890Z,704
2017-02-28T13:54:01.937Z,672
2017-02-28T13:55:01.988Z,700
2017-02-28T13:56:02.059Z,696
2017-02-28T13:57:02.111Z,696
2017-02-28T13:58:02.163Z,684
2017-02-28T13:59:02.236Z,672
2017-02-28T14:00:01.894Z,688
2017-02-28T14:01:02.326Z,692
2017-02-28T14:02:02.413Z,676
2017-02-28T14:03:02.439Z,664
2017-02-28T14:04:02.488Z,652
2017-02-28T14:05:02.538Z,640
2017-02-28T14:06:02.219Z,620
2017-02-28T14:07:02.670Z,588
2017-02-28T14:08:02.733Z,580
2017-02-28T14:09:02.785Z,576